Time;durP1;ratioP1;P1;durP2;ratioP2;P2;SDS_P1;SDS_P2;PMS_P1;PMS_P2;Temp;Humidity;BMP_temperature;BMP_pressure;BME280_temperature;BME280_humidity;BME280_pressure;Samples;Min_cycle;Max_cycle;Signal;HPM_P1;HPM_P2
2022/10/03 00:00:09;;;;;;;15.55;1.77;;;;;;;;;;5013721;28;20052;-81
2022/10/03 00:02:35;;;;;;;;;;;;;;;;;;5015516;28;20053;-81
2022/10/03 00:05:02;;;;;;;17.58;2.22;;;;;;;;;;5014310;28;19925;-77
2022/10/03 00:07:44;;;;;;;23.27;2.95;;;;;;;;;;5014406;28;20058;-81
2022/10/03 00:10:20;;;;;;;17.88;2.28;;;;;;;;;;5014622;28;20045;-80
2022/10/03 00:13:04;;;;;;;15.23;2.20;;;;;;;;;;5014377;28;20054;-82
2022/10/03 00:15:45;;;;;;;15.40;1.90;;;;;;;;;;5014425;28;20064;-81
2022/10/03 00:18:17;;;;;;;22.23;2.35;;;;;;;;;;5014005;28;20050;-82
2022/10/03 00:21:02;;;;;;;17.70;1.98;;;;;;;;;;5014039;28;20414;-81
2022/10/03 00:23:40;;;;;;;20.83;2.60;;;;;;;;;;5015690;28;20054;-80
2022/10/03 00:26:31;;;;;;;22.50;2.50;;;;;;;;;;5014350;28;20052;-82
2022/10/03 00:29:16;;;;;;;20.63;2.65;;;;;;;;;;5014809;28;20108;-81
2022/10/03 00:32:01;;;;;;;16.42;2.05;;;;;;;;;;5015021;28;20046;-81
2022/10/03 00:34:41;;;;;;;18.55;2.38;;;;;;;;;;5014422;28;20145;-80
2022/10/03 00:37:08;;;;;;;18.85;2.38;;;;;;;;;;5013477;28;20049;-81
2022/10/03 00:39:37;;;;;;;19.73;2.20;;;;;;;;;;4996720;28;20142;-81
2022/10/03 00:42:22;;;;;;;19.05;1.88;;;;;;;;;;5013791;28;20052;-80
2022/10/03 00:44:58;;;;;;;19.02;2.28;;;;;;;;;;5014309;28;20068;-79
2022/10/03 00:47:24;;;;;;;;;;;;;;;;;;5014923;28;20068;-80
2022/10/03 00:50:12;;;;;;;18.33;2.00;;;;;;;;;;5013277;28;20020;-80
2022/10/03 00:52:54;;;;;;;12.35;1.73;;;;;;;;;;5015233;28;20077;-80
2022/10/03 00:55:29;;;;;;;14.60;2.35;;;;;;;;;;5015591;28;20060;-81
2022/10/03 00:57:56;;;;;;;;;;;;;;;;;;5041144;28;20128;-79
2022/10/03 01:00:23;;;;;;;;;;;;;;;;;;5074541;28;19915;-80
2022/10/03 01:03:00;;;;;;;13.30;2.05;;;;;;;;;;5061206;28;20007;-80
2022/10/03 01:05:47;;;;;;;17.73;2.47;;;;;;;;;;5056743;28;20055;-79
2022/10/03 01:08:32;;;;;;;13.85;2.03;;;;;;;;;;5057395;28;20060;-80
2022/10/03 01:11:11;;;;;;;17.33;2.45;;;;;;;;;;5056627;28;20060;-80
2022/10/03 01:13:41;;;;;;;9.20;1.92;;;;;;;;;;5056153;28;20045;-81
2022/10/03 01:16:27;;;;;;;17.13;2.65;;;;;;;;;;5039590;28;20405;-81
2022/10/03 01:19:12;;;;;;;16.17;2.15;;;;;;;;;;5055685;28;20056;-81
2022/10/03 01:21:51;;;;;;;15.90;2.40;;;;;;;;;;5056076;28;20048;-80
2022/10/03 01:24:17;;;;;;;14.48;2.35;;;;;;;;;;5056962;28;20794;-79
2022/10/03 01:26:46;;;;;;;17.35;2.38;;;;;;;;;;5056234;28;20048;-79
2022/10/03 01:32:16;;;;;;;13.65;2.20;;;;;;;;;;5058533;28;20098;-80
2022/10/03 01:35:01;;;;;;;16.17;2.28;;;;;;;;;;5057176;28;20052;-77
2022/10/03 01:37:30;;;;;;;17.40;2.57;;;;;;;;;;5054828;28;20060;-79
2022/10/03 01:40:00;;;;;;;15.73;2.20;;;;;;;;;;5053908;28;20291;-78
2022/10/03 01:42:37;;;;;;;13.23;2.00;;;;;;;;;;5053406;28;20501;-76
2022/10/03 01:45:27;;;;;;;14.82;2.40;;;;;;;;;;5036776;28;20152;-78
2022/10/03 01:47:58;;;;;;;21.35;2.58;;;;;;;;;;4991072;28;20060;-79
2022/10/03 01:50:28;;;;;;;12.95;2.45;;;;;;;;;;5037574;28;20052;-82
2022/10/03 01:53:23;;;;;;;14.77;2.30;;;;;;;;;;5061940;28;20093;-79
2022/10/03 01:56:03;;;;;;;17.65;2.85;;;;;;;;;;5054046;28;20160;-78
2022/10/03 01:58:43;;;;;;;22.75;2.75;;;;;;;;;;5062196;28;20101;-79
2022/10/03 02:01:23;;;;;;;18.23;2.58;;;;;;;;;;5056071;28;20073;-80
2022/10/03 02:04:04;;;;;;;20.33;2.53;;;;;;;;;;5036640;28;20060;-80
2022/10/03 02:06:31;;;;;;;13.45;2.33;;;;;;;;;;5034106;28;20057;-79
2022/10/03 02:09:09;;;;;;;21.00;2.60;;;;;;;;;;5037049;28;20053;-83
2022/10/03 02:11:38;;;;;;;22.20;2.70;;;;;;;;;;5041258;28;20238;-78
2022/10/03 02:14:11;;;;;;;19.52;2.65;;;;;;;;;;5017598;28;20050;-81
2022/10/03 02:16:51;;;;;;;24.45;2.85;;;;;;;;;;5034044;28;20053;-80
2022/10/03 02:19:21;;;;;;;23.25;2.35;;;;;;;;;;5033995;28;20064;-79
2022/10/03 02:21:49;;;;;;;23.42;3.67;;;;;;;;;;5034740;28;20056;-79
2022/10/03 02:24:18;;;;;;;15.40;2.55;;;;;;;;;;5035029;28;20141;-80
2022/10/03 02:26:54;;;;;;;20.40;2.90;;;;;;;;;;5033302;28;20041;-80
2022/10/03 02:29:40;;;;;;;21.27;2.60;;;;;;;;;;5035366;28;20452;-80
2022/10/03 02:32:19;;;;;;;22.20;2.97;;;;;;;;;;5017484;28;20103;-80
2022/10/03 02:35:01;;;;;;;16.30;2.80;;;;;;;;;;5049431;28;20037;-80
2022/10/03 02:37:40;;;;;;;15.25;2.08;;;;;;;;;;5052460;28;20060;-80
2022/10/03 02:40:21;;;;;;;20.00;2.30;;;;;;;;;;5021348;28;20363;-82
2022/10/03 02:42:50;;;;;;;15.77;2.13;;;;;;;;;;5036425;28;20504;-80
2022/10/03 02:45:19;;;;;;;20.63;2.92;;;;;;;;;;5036443;28;20056;-79
2022/10/03 02:47:49;;;;;;;19.25;2.47;;;;;;;;;;5036185;28;20580;-81
2022/10/03 02:50:41;;;;;;;19.45;2.13;;;;;;;;;;5035346;28;20494;-82
2022/10/03 02:53:33;;;;;;;18.80;2.60;;;;;;;;;;4999034;28;20045;-80
2022/10/03 02:56:14;;;;;;;19.55;2.40;;;;;;;;;;5036847;28;20190;-81
2022/10/03 02:58:49;;;;;;;14.25;2.63;;;;;;;;;;5033601;28;20049;-81
2022/10/03 03:01:21;;;;;;;17.92;1.95;;;;;;;;;;5036968;28;20502;-81
2022/10/03 03:04:11;;;;;;;15.88;2.00;;;;;;;;;;5019287;28;20168;-81
2022/10/03 03:06:46;;;;;;;21.20;2.10;;;;;;;;;;5035655;28;20047;-82
2022/10/03 03:09:13;;;;;;;;;;;;;;;;;;5038963;28;20045;-81
2022/10/03 03:11:39;;;;;;;;;;;;;;;;;;5036253;28;20391;-82
2022/10/03 03:14:18;;;;;;;24.70;2.65;;;;;;;;;;5017812;28;19921;-81
2022/10/03 03:16:53;;;;;;;18.95;2.78;;;;;;;;;;5033996;28;20473;-83
2022/10/03 03:19:39;;;;;;;18.23;2.42;;;;;;;;;;5034112;28;20045;-81
2022/10/03 03:22:35;;;;;;;20.53;2.57;;;;;;;;;;5035361;28;20053;-81
2022/10/03 03:25:33;;;;;;;17.17;1.80;;;;;;;;;;5013475;28;20057;-80
2022/10/03 03:28:12;;;;;;;20.00;2.45;;;;;;;;;;4980181;28;20577;-79
2022/10/03 03:30:53;;;;;;;29.80;2.90;;;;;;;;;;5034759;28;20481;-80
2022/10/03 03:33:35;;;;;;;23.88;3.05;;;;;;;;;;5033944;28;20509;-81
2022/10/03 03:36:18;;;;;;;19.52;2.70;;;;;;;;;;5034302;28;20557;-82
2022/10/03 03:38:57;;;;;;;20.70;2.60;;;;;;;;;;5033927;28;20056;-82
2022/10/03 03:41:35;;;;;;;20.27;2.53;;;;;;;;;;5034964;28;20060;-81
2022/10/03 03:44:09;;;;;;;24.10;3.33;;;;;;;;;;5035146;28;20065;-81
2022/10/03 03:46:37;;;;;;;20.15;2.92;;;;;;;;;;5034703;28;20046;-80
2022/10/03 03:49:12;;;;;;;21.15;3.65;;;;;;;;;;5034999;28;20049;-82
2022/10/03 03:52:01;;;;;;;18.23;2.80;;;;;;;;;;5034492;28;20053;-81
2022/10/03 03:54:43;;;;;;;17.98;2.85;;;;;;;;;;4989523;28;20045;-81
2022/10/03 03:57:20;;;;;;;25.50;2.90;;;;;;;;;;5033912;28;20064;-81
2022/10/03 03:59:50;;;;;;;25.27;3.72;;;;;;;;;;5035100;28;20053;-81
2022/10/03 04:02:25;;;;;;;24.75;3.58;;;;;;;;;;5015025;28;20050;-81
2022/10/03 04:05:01;;;;;;;21.55;3.20;;;;;;;;;;5014305;28;20516;-82
2022/10/03 04:07:38;;;;;;;22.95;3.60;;;;;;;;;;5015055;28;20060;-82
2022/10/03 04:10:14;;;;;;;26.80;3.63;;;;;;;;;;5016224;28;20433;-81
2022/10/03 04:12:43;;;;;;;26.67;4.00;;;;;;;;;;5017287;28;20090;-81
2022/10/03 04:15:25;;;;;;;22.55;3.00;;;;;;;;;;5026162;28;20037;-80
2022/10/03 04:21:03;;;;;;;19.92;3.58;;;;;;;;;;5019547;28;20069;-79
2022/10/03 04:23:35;;;;;;;21.33;3.50;;;;;;;;;;5014808;28;20057;-82
2022/10/03 04:26:14;;;;;;;21.85;3.40;;;;;;;;;;5014279;28;20052;-81
2022/10/03 04:28:44;;;;;;;33.90;4.80;;;;;;;;;;5012923;28;20470;-82
2022/10/03 04:31:22;;;;;;;23.55;3.45;;;;;;;;;;5014746;28;20445;-82
2022/10/03 04:33:49;;;;;;;18.80;3.20;;;;;;;;;;4996119;28;20185;-82
2022/10/03 04:36:29;;;;;;;18.58;3.47;;;;;;;;;;4996837;28;20060;-82
2022/10/03 04:39:04;;;;;;;19.13;3.10;;;;;;;;;;4996769;28;20073;-82
2022/10/03 04:41:39;;;;;;;26.27;3.63;;;;;;;;;;4996846;28;20648;-82
2022/10/03 04:44:10;;;;;;;22.75;3.50;;;;;;;;;;5014090;28;20084;-81
2022/10/03 04:46:41;;;;;;;21.48;4.05;;;;;;;;;;5014936;28;20053;-80
2022/10/03 04:49:13;;;;;;;24.73;4.50;;;;;;;;;;5014214;28;20050;-79
2022/10/03 04:51:43;;;;;;;22.38;4.47;;;;;;;;;;5015268;28;20109;-79
2022/10/03 04:54:15;;;;;;;32.40;4.00;;;;;;;;;;5014958;28;20049;-80
2022/10/03 04:56:47;;;;;;;30.20;5.05;;;;;;;;;;5013403;28;20390;-80
2022/10/03 04:59:28;;;;;;;23.05;3.95;;;;;;;;;;5012806;28;20064;-80
2022/10/03 05:02:00;;;;;;;29.95;3.90;;;;;;;;;;4997383;28;20050;-80
2022/10/03 05:04:42;;;;;;;33.42;4.55;;;;;;;;;;5014834;28;20069;-81
2022/10/03 05:07:19;;;;;;;30.88;4.50;;;;;;;;;;5014466;28;20056;-81
2022/10/03 05:09:54;;;;;;;28.48;4.07;;;;;;;;;;4997633;28;20056;-80
2022/10/03 05:12:39;;;;;;;24.37;3.47;;;;;;;;;;5013863;28;20042;-79
2022/10/03 05:15:24;;;;;;;19.70;3.50;;;;;;;;;;5013789;28;20136;-80
2022/10/03 05:18:00;;;;;;;21.63;3.88;;;;;;;;;;4995156;28;20081;-80
2022/10/03 05:20:27;;;;;;;39.75;4.60;;;;;;;;;;5012967;28;20060;-81
2022/10/03 05:23:06;;;;;;;24.42;4.55;;;;;;;;;;5013341;28;20138;-81
2022/10/03 05:25:52;;;;;;;29.70;4.15;;;;;;;;;;5014787;28;20063;-80
2022/10/03 05:28:29;;;;;;;30.92;4.50;;;;;;;;;;5014240;28;20128;-80
2022/10/03 05:30:55;;;;;;;24.73;5.30;;;;;;;;;;5014620;28;20045;-80
2022/10/03 05:33:21;;;;;;;23.38;5.20;;;;;;;;;;5012744;28;20065;-80
2022/10/03 05:35:50;;;;;;;25.60;4.68;;;;;;;;;;5013910;28;20049;-80
2022/10/03 05:38:32;;;;;;;29.23;4.93;;;;;;;;;;4995383;28;20524;-80
2022/10/03 05:41:02;;;;;;;32.50;5.75;;;;;;;;;;5013532;28;20058;-80
2022/10/03 05:43:44;;;;;;;29.67;5.60;;;;;;;;;;5012244;28;20057;-80
2022/10/03 05:46:13;;;;;;;27.15;5.10;;;;;;;;;;5013796;28;20409;-79
2022/10/03 05:48:46;;;;;;;25.30;4.80;;;;;;;;;;5016253;28;20050;-79
2022/10/03 05:51:38;;;;;;;28.77;5.03;;;;;;;;;;5017304;28;20398;-79
2022/10/03 05:54:11;;;;;;;30.92;5.05;;;;;;;;;;5017348;28;20097;-80
2022/10/03 05:56:40;;;;;;;18.27;4.80;;;;;;;;;;5016711;28;20061;-81
2022/10/03 05:59:25;;;;;;;26.92;4.43;;;;;;;;;;5044175;28;20075;-80
2022/10/03 06:01:52;;;;;;;18.80;4.17;;;;;;;;;;5058648;28;20056;-81
2022/10/03 06:04:21;;;;;;;22.83;4.32;;;;;;;;;;5056625;28;20049;-79
2022/10/03 06:06:47;;;;;;;25.92;4.68;;;;;;;;;;5056231;28;20049;-80
2022/10/03 06:09:34;;;;;;;20.23;4.20;;;;;;;;;;5060865;28;20055;-79
2022/10/03 06:12:06;;;;;;;30.80;4.22;;;;;;;;;;5058585;28;20056;-79
2022/10/03 06:14:34;;;;;;;17.63;3.55;;;;;;;;;;5055967;28;20049;-79
2022/10/03 06:17:02;;;;;;;26.02;4.30;;;;;;;;;;5055905;28;20063;-80
2022/10/03 06:19:47;;;;;;;25.20;4.40;;;;;;;;;;5043158;28;20052;-77
2022/10/03 06:22:25;;;;;;;28.15;4.95;;;;;;;;;;5073059;28;20136;-78
2022/10/03 06:24:52;;;;;;;23.48;3.97;;;;;;;;;;5057758;28;20112;-79
2022/10/03 06:27:18;;;;;;;21.80;3.92;;;;;;;;;;5057663;28;20060;-79
2022/10/03 06:29:57;;;;;;;19.50;3.75;;;;;;;;;;5058076;28;20385;-78
2022/10/03 06:32:26;;;;;;;20.98;3.50;;;;;;;;;;5055509;28;20041;-79
2022/10/03 06:34:55;;;;;;;23.45;3.50;;;;;;;;;;5053334;28;20318;-80
2022/10/03 06:37:37;;;;;;;21.17;3.17;;;;;;;;;;5054482;28;20052;-80
2022/10/03 06:40:03;;;;;;;18.63;3.58;;;;;;;;;;5053913;28;20492;-79
2022/10/03 06:42:42;;;;;;;17.85;3.72;;;;;;;;;;5053778;28;20063;-79
2022/10/03 06:45:15;;;;;;;28.08;3.90;;;;;;;;;;5054865;28;20049;-81
2022/10/03 06:47:41;;;;;;;23.77;3.83;;;;;;;;;;5054303;28;20059;-81
2022/10/03 06:50:07;;;;;;;30.95;3.70;;;;;;;;;;5054272;28;20052;-79
2022/10/03 06:52:46;;;;;;;23.30;3.92;;;;;;;;;;5055533;28;20068;-81
2022/10/03 06:55:18;;;;;;;26.98;4.07;;;;;;;;;;5055458;28;20049;-81
2022/10/03 06:57:57;;;;;;;17.58;3.75;;;;;;;;;;5050505;28;20050;-80
2022/10/03 07:00:33;;;;;;;21.40;4.05;;;;;;;;;;5016494;28;20045;-82
2022/10/03 07:03:03;;;;;;;18.17;4.18;;;;;;;;;;5035030;28;20054;-81
2022/10/03 07:05:47;;;;;;;22.23;3.47;;;;;;;;;;5034109;28;20425;-81
2022/10/03 07:08:15;;;;;;;24.20;3.95;;;;;;;;;;5033279;28;20053;-81
2022/10/03 07:10:53;;;;;;;17.85;3.83;;;;;;;;;;5033536;28;20533;-81
2022/10/03 07:13:20;;;;;;;17.27;3.42;;;;;;;;;;5032810;28;20041;-80
2022/10/03 07:15:52;;;;;;;27.15;4.30;;;;;;;;;;5044782;28;20105;-79
2022/10/03 07:19:08;;;;;;;29.58;4.13;;;;;;;;;;5051327;28;20049;-78
2022/10/03 07:21:37;;;;;;;22.83;3.80;;;;;;;;;;5031116;28;20093;-80
2022/10/03 07:24:04;;;;;;;23.33;3.90;;;;;;;;;;5048774;28;20354;-81
2022/10/03 07:26:42;;;;;;;18.92;3.90;;;;;;;;;;5034521;28;20049;-81
2022/10/03 07:29:08;;;;;;;19.90;4.45;;;;;;;;;;5034235;28;20144;-83
2022/10/03 07:31:49;;;;;;;17.60;3.10;;;;;;;;;;5038764;28;20041;-79
2022/10/03 07:34:34;;;;;;;22.60;3.70;;;;;;;;;;5054189;28;20117;-80
2022/10/03 07:40:00;;;;;;;18.80;3.38;;;;;;;;;;5033629;28;20136;-81
2022/10/03 07:42:30;;;;;;;17.50;4.07;;;;;;;;;;5034067;28;20045;-80
2022/10/03 07:45:10;;;;;;;24.13;3.97;;;;;;;;;;5033367;28;20076;-81
2022/10/03 07:47:56;;;;;;;21.73;3.35;;;;;;;;;;5033910;28;20042;-82
2022/10/03 07:50:23;;;;;;;14.38;2.83;;;;;;;;;;5032136;28;20081;-82
2022/10/03 07:52:59;;;;;;;25.83;4.00;;;;;;;;;;5033373;28;20527;-82
2022/10/03 07:55:32;;;;;;;18.20;3.40;;;;;;;;;;5032981;28;20378;-81
2022/10/03 07:57:59;;;;;;;14.25;2.42;;;;;;;;;;5035512;28;20052;-82
2022/10/03 08:00:43;;;;;;;18.38;2.67;;;;;;;;;;5056387;28;20105;-81
2022/10/03 08:03:25;;;;;;;24.45;2.80;;;;;;;;;;5053248;28;20472;-82
2022/10/03 08:06:14;;;;;;;12.75;2.25;;;;;;;;;;5052911;28;20295;-81
2022/10/03 08:08:52;;;;;;;13.88;3.00;;;;;;;;;;5051982;28;20124;-80
2022/10/03 08:11:36;;;;;;;23.20;3.20;;;;;;;;;;5052997;28;20067;-81
2022/10/03 08:14:03;;;;;;;16.13;2.75;;;;;;;;;;5052285;28;20079;-80
2022/10/03 08:16:45;;;;;;;19.98;2.92;;;;;;;;;;5053552;28;20053;-80
2022/10/03 08:19:41;;;;;;;18.60;3.30;;;;;;;;;;5052537;28;20188;-81
2022/10/03 08:22:07;;;;;;;16.13;2.40;;;;;;;;;;5032302;28;20045;-82
2022/10/03 08:24:55;;;;;;;20.27;2.85;;;;;;;;;;5053457;28;20048;-81
2022/10/03 08:27:40;;;;;;;16.40;3.25;;;;;;;;;;5039269;28;20432;-82
2022/10/03 08:30:22;;;;;;;24.02;4.30;;;;;;;;;;5051575;28;20044;-81
2022/10/03 08:32:51;;;;;;;16.15;2.85;;;;;;;;;;5052569;28;20437;-81
2022/10/03 08:35:17;;;;;;;18.27;2.75;;;;;;;;;;5050596;28;20056;-80
2022/10/03 08:38:03;;;;;;;10.75;3.03;;;;;;;;;;5052169;28;20474;-81
2022/10/03 08:40:31;;;;;;;21.00;2.90;;;;;;;;;;5033769;28;20446;-81
2022/10/03 08:43:07;;;;;;;16.98;2.67;;;;;;;;;;5051297;28;20044;-81
2022/10/03 08:45:45;;;;;;;13.80;3.10;;;;;;;;;;5052350;28;20516;-81
2022/10/03 08:48:26;;;;;;;16.00;2.47;;;;;;;;;;5050857;28;20049;-81
2022/10/03 08:50:59;;;;;;;16.58;2.80;;;;;;;;;;5052128;28;20075;-81
2022/10/03 08:53:31;;;;;;;12.48;2.75;;;;;;;;;;5052444;28;20060;-82
2022/10/03 08:56:16;;;;;;;21.33;3.13;;;;;;;;;;5054651;28;20045;-80
2022/10/03 08:59:01;;;;;;;16.77;2.70;;;;;;;;;;5053073;28;20524;-80
2022/10/03 09:01:34;;;;;;;9.38;2.03;;;;;;;;;;5034355;28;20053;-81
2022/10/03 09:04:04;;;;;;;13.88;2.17;;;;;;;;;;5032198;28;20049;-81
2022/10/03 09:06:50;;;;;;;13.88;2.33;;;;;;;;;;5030942;28;20079;-79
2022/10/03 09:09:40;;;;;;;15.20;2.40;;;;;;;;;;5032111;28;20053;-79
2022/10/03 09:12:06;;;;;;;10.68;1.80;;;;;;;;;;5037904;28;20050;-82
2022/10/03 09:14:51;;;;;;;9.80;2.05;;;;;;;;;;5031481;28;20528;-81
2022/10/03 09:17:36;;;;;;;9.23;1.88;;;;;;;;;;5031998;28;20045;-81
2022/10/03 09:20:21;;;;;;;11.50;2.30;;;;;;;;;;5030712;28;20050;-81
2022/10/03 09:23:02;;;;;;;17.70;2.20;;;;;;;;;;5037030;28;20390;-82
2022/10/03 09:25:38;;;;;;;15.57;2.05;;;;;;;;;;5019463;28;20046;-82
2022/10/03 09:28:23;;;;;;;11.35;1.90;;;;;;;;;;5035530;28;20052;-81
2022/10/03 09:30:54;;;;;;;11.07;2.10;;;;;;;;;;5035927;28;20476;-81
2022/10/03 09:33:32;;;;;;;9.65;2.10;;;;;;;;;;5034566;28;20493;-82
2022/10/03 09:36:03;;;;;;;11.52;2.00;;;;;;;;;;5034816;28;20052;-81
2022/10/03 09:38:39;;;;;;;14.75;2.53;;;;;;;;;;5034422;28;20064;-81
2022/10/03 09:41:18;;;;;;;17.42;2.45;;;;;;;;;;5034911;28;20058;-82
2022/10/03 09:43:55;;;;;;;15.15;2.78;;;;;;;;;;5034223;28;20049;-81
2022/10/03 09:46:40;;;;;;;16.80;2.55;;;;;;;;;;5036159;28;20056;-82
2022/10/03 09:49:30;;;;;;;9.65;2.55;;;;;;;;;;5035056;28;20505;-81
2022/10/03 09:52:08;;;;;;;15.70;2.95;;;;;;;;;;5039290;28;20069;-81
2022/10/03 09:55:01;;;;;;;13.80;2.42;;;;;;;;;;5034425;28;20055;-81
2022/10/03 09:57:48;;;;;;;15.20;2.67;;;;;;;;;;5028969;28;20053;-82
2022/10/03 10:00:14;;;;;;;16.40;2.35;;;;;;;;;;5054339;28;20052;-80
2022/10/03 10:02:53;;;;;;;12.32;2.20;;;;;;;;;;5036739;28;20106;-81
2022/10/03 10:05:22;;;;;;;11.60;2.40;;;;;;;;;;5053988;28;20057;-81
2022/10/03 10:08:02;;;;;;;12.20;2.08;;;;;;;;;;5036100;28;20493;-82
2022/10/03 10:10:47;;;;;;;9.60;1.98;;;;;;;;;;5058621;28;20060;-82
2022/10/03 10:13:18;;;;;;;11.87;2.07;;;;;;;;;;5058973;28;20053;-80
2022/10/03 10:16:07;;;;;;;12.07;2.10;;;;;;;;;;5063452;28;20515;-82
2022/10/03 10:18:52;;;;;;;12.88;1.77;;;;;;;;;;5057604;28;20053;-81
2022/10/03 10:21:37;;;;;;;10.77;1.93;;;;;;;;;;5056117;28;20063;-81
2022/10/03 10:24:16;;;;;;;7.78;1.50;;;;;;;;;;5054722;28;20053;-82
2022/10/03 10:27:11;;;;;;;13.18;1.63;;;;;;;;;;5053020;28;20463;-81
2022/10/03 10:29:38;;;;;;;9.73;1.90;;;;;;;;;;4966069;28;20059;-80
2022/10/03 10:32:23;;;;;;;10.65;1.42;;;;;;;;;;5054689;28;20420;-78
2022/10/03 10:34:52;;;;;;;11.25;1.67;;;;;;;;;;5054550;28;20049;-81
2022/10/03 10:37:37;;;;;;;10.68;1.98;;;;;;;;;;5054814;28;20045;-82
2022/10/03 10:40:19;;;;;;;9.75;2.00;;;;;;;;;;5054573;28;20053;-81
2022/10/03 10:43:05;;;;;;;11.77;2.13;;;;;;;;;;5054684;28;20459;-82
2022/10/03 10:45:31;;;;;;;12.90;2.45;;;;;;;;;;5055120;28;20121;-82
2022/10/03 10:48:07;;;;;;;11.77;1.73;;;;;;;;;;5055908;28;20069;-80
2022/10/03 10:50:33;;;;;;;;;;;;;;;;;;5069996;28;20108;-80
2022/10/03 10:52:59;;;;;;;;;;;;;;;;;;5054176;28;19921;-80
2022/10/03 10:55:26;;;;;;;;;;;;;;;;;;5043219;28;19920;-82
2022/10/03 10:57:58;;;;;;;8.85;1.75;;;;;;;;;;5043179;28;19927;-81
2022/10/03 11:00:38;;;;;;;13.90;2.15;;;;;;;;;;5055042;28;20056;-82
2022/10/03 11:03:08;;;;;;;9.32;1.67;;;;;;;;;;5059399;28;20052;-80
2022/10/03 11:05:39;;;;;;;9.73;1.80;;;;;;;;;;5052122;28;20227;-80
2022/10/03 11:08:17;;;;;;;8.82;1.65;;;;;;;;;;5048509;28;20049;-80
2022/10/03 11:10:44;;;;;;;5.50;1.33;;;;;;;;;;5049169;28;20059;-80
2022/10/03 11:13:29;;;;;;;6.95;1.33;;;;;;;;;;5050648;28;20041;-81
2022/10/03 11:16:13;;;;;;;8.40;1.73;;;;;;;;;;5050529;28;20064;-81
2022/10/03 11:18:45;;;;;;;8.43;1.58;;;;;;;;;;5049621;28;20049;-79
2022/10/03 11:21:18;;;;;;;11.30;1.55;;;;;;;;;;5051899;28;20045;-81
2022/10/03 11:23:55;;;;;;;8.82;1.70;;;;;;;;;;5052478;28;20060;-80
2022/10/03 11:26:34;;;;;;;5.22;1.60;;;;;;;;;;5052438;28;20492;-80
2022/10/03 11:29:19;;;;;;;9.77;1.73;;;;;;;;;;5033907;28;20045;-81
2022/10/03 11:31:48;;;;;;;16.75;2.20;;;;;;;;;;5051396;28;20052;-80
2022/10/03 11:34:35;;;;;;;12.57;2.10;;;;;;;;;;5051545;28;20053;-80
2022/10/03 11:37:04;;;;;;;8.95;1.70;;;;;;;;;;5051821;28;20045;-80
2022/10/03 11:39:31;;;;;;;9.80;1.60;;;;;;;;;;5053070;28;20059;-81
2022/10/03 11:41:57;;;;;;;6.68;2.03;;;;;;;;;;5051688;28;20517;-80
2022/10/03 11:44:26;;;;;;;9.48;1.50;;;;;;;;;;5053076;28;20276;-81
2022/10/03 11:46:58;;;;;;;4.78;1.40;;;;;;;;;;5058036;28;20336;-80
2022/10/03 11:49:33;;;;;;;8.38;1.27;;;;;;;;;;5052238;28;20048;-82
2022/10/03 11:52:03;;;;;;;5.70;1.40;;;;;;;;;;5053046;28;20045;-82
2022/10/03 11:54:31;;;;;;;10.23;1.40;;;;;;;;;;5036280;28;20044;-80
2022/10/03 11:57:08;;;;;;;6.25;1.05;;;;;;;;;;5054527;28;20389;-80
2022/10/03 11:59:34;;;;;;;7.53;1.73;;;;;;;;;;5036488;28;20163;-80
2022/10/03 12:02:06;;;;;;;10.70;1.70;;;;;;;;;;5015230;28;20045;-80
2022/10/03 12:04:39;;;;;;;8.10;1.20;;;;;;;;;;5032187;28;20330;-80
2022/10/03 12:09:56;;;;;;;11.55;2.05;;;;;;;;;;5033557;28;20330;-82
2022/10/03 12:12:42;;;;;;;7.13;1.77;;;;;;;;;;5032592;28;20128;-81
2022/10/03 12:15:17;;;;;;;8.15;1.63;;;;;;;;;;5032347;28;20085;-81
2022/10/03 12:17:49;;;;;;;13.25;1.80;;;;;;;;;;5031606;28;20053;-82
2022/10/03 12:20:22;;;;;;;7.75;1.40;;;;;;;;;;5030794;28;20429;-80
2022/10/03 12:23:24;;;;;;;5.45;1.48;;;;;;;;;;5031337;28;20420;-82
2022/10/03 12:25:52;;;;;;;6.10;1.42;;;;;;;;;;4932897;29;20496;-81
2022/10/03 12:28:22;;;;;;;9.25;1.52;;;;;;;;;;5013355;28;20056;-80
2022/10/03 12:31:00;;;;;;;9.45;1.55;;;;;;;;;;5015823;28;20045;-81
2022/10/03 12:33:44;;;;;;;8.57;1.90;;;;;;;;;;5033758;28;20061;-80
2022/10/03 12:36:14;;;;;;;4.82;1.20;;;;;;;;;;5032679;28;20045;-80
2022/10/03 12:38:52;;;;;;;7.30;1.50;;;;;;;;;;5031797;28;20049;-80
2022/10/03 12:41:31;;;;;;;10.20;1.27;;;;;;;;;;5033382;28;20049;-80
2022/10/03 12:44:03;;;;;;;9.00;1.58;;;;;;;;;;5042305;28;20043;-79
2022/10/03 12:46:33;;;;;;;10.55;1.83;;;;;;;;;;5052306;28;20108;-76
2022/10/03 12:49:10;;;;;;;9.45;2.50;;;;;;;;;;5038721;28;20088;-80
2022/10/03 12:51:40;;;;;;;10.02;4.03;;;;;;;;;;5032427;28;20050;-81
2022/10/03 12:54:08;;;;;;;12.25;2.00;;;;;;;;;;5034669;28;20045;-79
2022/10/03 12:56:34;;;;;;;9.20;1.70;;;;;;;;;;5038352;28;20060;-81
2022/10/03 12:59:01;;;;;;;8.75;1.60;;;;;;;;;;5054197;28;20059;-80
2022/10/03 13:01:30;;;;;;;10.02;1.38;;;;;;;;;;5061149;28;20060;-82
2022/10/03 13:04:11;;;;;;;5.90;1.25;;;;;;;;;;5060111;28;20080;-79
2022/10/03 13:06:41;;;;;;;13.18;1.42;;;;;;;;;;5060140;28;20060;-82
2022/10/03 13:09:42;;;;;;;6.90;1.20;;;;;;;;;;5061059;28;20045;-80
2022/10/03 13:12:27;;;;;;;8.35;1.40;;;;;;;;;;5059146;28;20238;-79
2022/10/03 13:15:14;;;;;;;16.83;3.08;;;;;;;;;;5045833;28;20048;-80
2022/10/03 13:17:48;;;;;;;5.15;1.23;;;;;;;;;;5059783;28;20045;-80
2022/10/03 13:20:18;;;;;;;6.00;1.13;;;;;;;;;;5041443;28;20159;-79
2022/10/03 13:22:54;;;;;;;4.97;1.02;;;;;;;;;;5059165;28;20052;-80
2022/10/03 13:25:32;;;;;;;5.80;1.27;;;;;;;;;;5042603;28;20505;-80
2022/10/03 13:27:59;;;;;;;7.50;1.50;;;;;;;;;;5059276;28;20145;-80
2022/10/03 13:30:31;;;;;;;7.72;1.30;;;;;;;;;;5060598;28;20056;-80
2022/10/03 13:32:57;;;;;;;7.53;1.30;;;;;;;;;;5059414;28;20535;-80
2022/10/03 13:38:25;;;;;;;6.13;1.27;;;;;;;;;;5041734;28;20041;-81
2022/10/03 13:40:56;;;;;;;6.20;1.30;;;;;;;;;;5037801;28;20464;-80
2022/10/03 13:43:26;;;;;;;7.20;1.15;;;;;;;;;;5029824;28;20140;-80
2022/10/03 13:45:55;;;;;;;9.02;1.40;;;;;;;;;;5024929;28;20103;-81
2022/10/03 13:48:25;;;;;;;6.60;1.23;;;;;;;;;;5031074;28;20053;-81
2022/10/03 13:50:57;;;;;;;9.98;1.70;;;;;;;;;;5032695;28;20052;-80
2022/10/03 13:53:33;;;;;;;9.27;1.40;;;;;;;;;;5039537;28;20123;-81
2022/10/03 13:56:00;;;;;;;;;;;;;;;;;;5038443;28;20060;-81
2022/10/03 13:58:35;;;;;;;10.75;1.45;;;;;;;;;;5031072;28;19925;-81
2022/10/03 14:01:20;;;;;;;8.05;1.40;;;;;;;;;;5055126;28;20030;-78
2022/10/03 14:04:00;;;;;;;8.48;1.85;;;;;;;;;;5058812;28;20040;-78
2022/10/03 14:06:26;;;;;;;9.23;1.10;;;;;;;;;;5042739;28;20065;-80
2022/10/03 14:08:52;;;;;;;10.60;1.40;;;;;;;;;;5034218;28;20045;-80
2022/10/03 14:11:25;;;;;;;9.82;1.40;;;;;;;;;;5036049;28;20432;-79
2022/10/03 14:13:55;;;;;;;5.43;1.27;;;;;;;;;;5036881;28;20045;-81
2022/10/03 14:16:26;;;;;;;7.70;1.50;;;;;;;;;;5036187;28;20064;-81
2022/10/03 14:19:01;;;;;;;13.07;2.30;;;;;;;;;;5027749;28;20060;-78
2022/10/03 14:21:27;;;;;;;;;;;;;;;;;;5030766;28;20151;-80
2022/10/03 14:23:54;;;;;;;;;;;;;;;;;;5027155;28;19925;-81
2022/10/03 14:26:20;;;;;;;10.82;2.50;;;;;;;;;;5022209;28;19945;-80
2022/10/03 14:28:50;;;;;;;7.43;1.40;;;;;;;;;;5030648;28;20046;-81
2022/10/03 14:31:16;;;;;;;8.55;1.38;;;;;;;;;;5017640;28;20493;-81
2022/10/03 14:33:52;;;;;;;7.40;1.20;;;;;;;;;;5009256;28;20041;-80
2022/10/03 14:36:23;;;;;;;7.30;1.05;;;;;;;;;;5015242;28;20052;-81
2022/10/03 14:38:59;;;;;;;11.15;1.52;;;;;;;;;;5019429;28;20045;-81
2022/10/03 14:41:46;;;;;;;7.13;1.00;;;;;;;;;;5034805;28;20049;-80
2022/10/03 14:44:21;;;;;;;8.27;1.20;;;;;;;;;;4972688;28;20141;-81
2022/10/03 14:46:50;;;;;;;14.45;1.42;;;;;;;;;;5029632;28;20132;-79
2022/10/03 14:49:22;;;;;;;8.55;1.20;;;;;;;;;;5024823;28;20042;-81
2022/10/03 14:52:11;;;;;;;6.40;1.40;;;;;;;;;;5026393;28;20332;-80
2022/10/03 14:54:41;;;;;;;8.10;1.30;;;;;;;;;;5028105;28;20069;-80
2022/10/03 14:57:27;;;;;;;10.93;1.48;;;;;;;;;;5016594;28;20049;-78
2022/10/03 14:59:56;;;;;;;5.22;1.25;;;;;;;;;;5015615;28;20477;-79
2022/10/03 15:02:28;;;;;;;8.23;2.03;;;;;;;;;;4998120;28;20045;-79
2022/10/03 15:05:00;;;;;;;9.00;1.80;;;;;;;;;;5008843;28;20053;-78
2022/10/03 15:07:38;;;;;;;5.68;1.55;;;;;;;;;;5012353;28;20045;-78
2022/10/03 15:10:09;;;;;;;5.32;1.30;;;;;;;;;;5017783;28;20137;-80
2022/10/03 15:12:37;;;;;;;11.23;1.65;;;;;;;;;;5033296;28;20109;-79
2022/10/03 15:15:06;;;;;;;8.80;1.83;;;;;;;;;;5017545;28;20045;-81
2022/10/03 15:17:42;;;;;;;11.48;1.73;;;;;;;;;;5034697;28;20526;-81
2022/10/03 15:20:10;;;;;;;6.88;1.50;;;;;;;;;;5038274;28;20056;-80
2022/10/03 15:22:39;;;;;;;8.52;1.40;;;;;;;;;;5006962;28;20058;-80
2022/10/03 15:25:37;;;;;;;5.65;1.60;;;;;;;;;;4997196;28;20056;-81
2022/10/03 15:28:33;;;;;;;6.45;1.20;;;;;;;;;;4955016;28;20410;-80
2022/10/03 15:31:07;;;;;;;10.30;1.55;;;;;;;;;;4997412;28;20046;-80
2022/10/03 15:33:36;;;;;;;4.38;1.10;;;;;;;;;;4996231;28;20077;-82
2022/10/03 15:36:02;;;;;;;6.75;1.50;;;;;;;;;;5014165;28;20057;-80
2022/10/03 15:38:32;;;;;;;9.05;1.63;;;;;;;;;;5013843;28;20088;-81
2022/10/03 15:40:59;;;;;;;7.30;1.40;;;;;;;;;;4996390;28;20469;-80
2022/10/03 15:43:37;;;;;;;7.15;1.17;;;;;;;;;;5012738;28;20049;-79